Time;durP1;ratioP1;P1;durP2;ratioP2;P2;SDS_P1;SDS_P2;PMS_P1;PMS_P2;Temp;Humidity;BMP_temperature;BMP_pressure;BME280_temperature;BME280_humidity;BME280_pressure;Samples;Min_cycle;Max_cycle;Signal;HPM_P1;HPM_P2
2022/01/20 00:02:06;;;;;;;3.70;3.40;;;5.50;87.00;;;;;;4940947;28;20465;-47
2022/01/20 00:04:49;;;;;;;4.73;3.60;;;5.50;87.20;;;;;;4945575;28;20546;-47
2022/01/20 00:07:34;;;;;;;4.57;4.10;;;5.50;87.00;;;;;;4933725;28;20458;-47
2022/01/20 00:26:12;;;;;;;4.47;4.07;;;5.60;85.90;;;;;;4943101;28;20580;-48
2022/01/20 00:33:45;;;;;;;4.20;3.40;;;5.60;85.80;;;;;;4943576;28;20522;-48
2022/01/20 00:38:43;;;;;;;3.77;2.90;;;5.60;85.60;;;;;;4923004;28;20467;-48
2022/01/20 00:41:15;;;;;;;3.50;3.20;;;5.60;85.60;;;;;;4946678;28;20490;-48
2022/01/20 00:43:43;;;;;;;3.87;3.17;;;5.50;85.60;;;;;;4932266;29;20526;-47
2022/01/20 00:46:10;;;;;;;3.50;3.20;;;5.50;85.70;;;;;;4946346;28;20462;-48
2022/01/20 00:48:37;;;;;;;3.83;3.33;;;5.50;85.70;;;;;;4921079;29;20453;-47
2022/01/20 00:51:04;;;;;;;3.53;3.00;;;5.50;85.70;;;;;;4942920;28;20469;-48
2022/01/20 00:53:31;;;;;;;3.67;3.30;;;5.50;85.90;;;;;;4941422;28;20468;-47
2022/01/20 00:55:58;;;;;;;3.20;2.70;;;5.50;86.00;;;;;;4945624;28;20478;-48
2022/01/20 00:58:24;;;;;;;3.47;3.17;;;5.50;86.00;;;;;;4927639;28;20467;-48
2022/01/20 01:00:52;;;;;;;7.60;3.30;;;5.50;86.20;;;;;;4930094;29;20513;-47
2022/01/20 01:03:19;;;;;;;6.10;3.27;;;5.50;86.30;;;;;;4937772;28;20497;-48
2022/01/20 01:06:07;;;;;;;5.27;3.57;;;5.50;86.30;;;;;;4927486;29;20938;-48
2022/01/20 01:08:34;;;;;;;3.60;3.20;;;5.50;86.30;;;;;;4939717;28;20836;-48
2022/01/20 01:11:00;;;;;;;3.10;2.80;;;5.50;86.40;;;;;;4940297;28;20467;-48
2022/01/20 01:13:28;;;;;;;4.47;3.23;;;5.60;86.70;;;;;;4928140;29;20476;-48
2022/01/20 01:15:55;;;;;;;5.10;3.90;;;5.60;86.80;;;;;;4942533;28;20983;-48
2022/01/20 01:21:14;;;;;;;3.93;3.53;;;5.60;86.90;;;;;;4944655;28;20630;-48
2022/01/20 01:23:44;;;;;;;3.47;3.17;;;5.60;86.90;;;;;;4924132;29;20480;-47
2022/01/20 01:26:16;;;;;;;5.23;3.40;;;5.70;86.40;;;;;;4924242;28;20851;-48
2022/01/20 01:28:45;;;;;;;4.97;3.63;;;5.70;86.30;;;;;;4942717;28;20833;-49
2022/01/20 01:33:55;;;;;;;3.53;3.10;;;5.70;86.00;;;;;;4941168;28;21022;-47
2022/01/20 01:36:24;;;;;;;4.80;3.60;;;5.70;85.70;;;;;;4944619;28;20469;-48
2022/01/20 01:38:51;;;;;;;4.37;3.00;;;5.70;85.30;;;;;;4942062;28;20715;-48
2022/01/20 01:41:28;;;;;;;4.00;3.10;;;5.70;85.20;;;;;;4945941;28;21095;-49
2022/01/20 01:43:56;;;;;;;3.40;2.83;;;5.60;85.20;;;;;;4943554;28;20845;-48
2022/01/20 01:46:24;;;;;;;3.60;3.13;;;5.60;85.00;;;;;;4942231;28;20471;-48
2022/01/20 01:48:50;;;;;;;3.50;3.03;;;5.70;84.90;;;;;;4932174;29;20448;-47
2022/01/20 01:51:17;;;;;;;10.80;3.13;;;5.60;85.00;;;;;;4946223;28;20463;-47
2022/01/20 01:53:44;;;;;;;6.83;3.90;;;5.60;85.20;;;;;;4941470;28;20459;-48
2022/01/20 01:56:11;;;;;;;4.20;2.27;;;5.60;85.40;;;;;;4913372;28;20539;-48
2022/01/20 01:58:38;;;;;;;4.40;3.00;;;5.60;85.50;;;;;;4945027;28;20462;-48
2022/01/20 02:01:05;;;;;;;2.93;2.73;;;5.60;85.50;;;;;;4945615;28;20494;-47
2022/01/20 02:03:41;;;;;;;5.33;3.70;;;5.50;85.60;;;;;;4938201;29;20458;-47
2022/01/20 02:09:22;;;;;;;4.90;3.40;;;5.50;85.60;;;;;;4943087;28;20471;-47
2022/01/20 02:20:01;;;;;;;5.60;3.30;;;5.70;85.00;;;;;;4941999;28;20492;-49
2022/01/20 02:22:28;;;;;;;3.97;3.20;;;5.70;84.90;;;;;;4931563;28;20485;-48
2022/01/20 02:24:55;;;;;;;7.50;4.23;;;5.70;84.80;;;;;;4944681;28;20472;-48
2022/01/20 02:27:22;;;;;;;5.50;3.43;;;5.70;84.60;;;;;;4943671;28;20463;-48
2022/01/20 02:29:48;;;;;;;4.43;3.87;;;5.60;84.60;;;;;;4925305;29;20568;-48
2022/01/20 02:32:15;;;;;;;6.27;3.63;;;5.60;84.50;;;;;;4941270;28;20472;-48
2022/01/20 02:34:42;;;;;;;5.30;3.37;;;5.60;84.30;;;;;;4929674;29;20473;-47
2022/01/20 02:37:12;;;;;;;5.93;3.90;;;5.60;84.30;;;;;;4921345;29;20471;-47
2022/01/20 02:45:15;;;;;;;7.07;3.90;;;5.60;84.50;;;;;;4866192;29;21045;-48
2022/01/20 02:47:42;;;;;;;4.70;3.33;;;5.60;84.70;;;;;;4916212;28;20463;-48
2022/01/20 02:50:09;;;;;;;9.07;4.30;;;5.60;84.60;;;;;;4927429;29;20471;-48
2022/01/20 02:52:36;;;;;;;6.40;3.20;;;5.50;84.60;;;;;;4943383;28;20455;-48
2022/01/20 02:55:03;;;;;;;8.10;3.63;;;5.60;84.40;;;;;;4946139;28;20563;-47
2022/01/20 02:57:29;;;;;;;7.10;3.13;;;5.50;84.60;;;;;;4928281;28;20467;-48
2022/01/20 02:59:56;;;;;;;7.43;3.50;;;5.50;84.30;;;;;;4943043;28;20469;-48
2022/01/20 03:02:23;;;;;;;11.77;4.73;;;5.50;84.20;;;;;;4941150;28;20958;-48
2022/01/20 03:04:51;;;;;;;8.43;3.47;;;5.50;84.00;;;;;;4957002;28;20456;-47
2022/01/20 03:07:19;;;;;;;8.43;3.83;;;5.50;84.00;;;;;;4923376;29;20545;-47
2022/01/20 03:09:45;;;;;;;10.33;3.33;;;5.50;84.20;;;;;;4942429;28;20463;-47
2022/01/20 03:12:12;;;;;;;5.73;2.80;;;5.50;84.50;;;;;;4925380;29;20494;-47
2022/01/20 03:14:39;;;;;;;9.53;3.03;;;5.50;84.60;;;;;;4943725;28;20456;-47
2022/01/20 03:17:06;;;;;;;8.40;2.90;;;5.50;84.70;;;;;;4923631;29;20459;-48
2022/01/20 03:19:33;;;;;;;5.80;3.40;;;5.50;84.70;;;;;;4944387;28;20459;-47
2022/01/20 03:22:00;;;;;;;7.00;2.67;;;5.50;84.50;;;;;;4927851;29;20581;-48
2022/01/20 03:24:27;;;;;;;6.63;3.10;;;5.60;84.50;;;;;;4944580;28;20498;-47
2022/01/20 03:26:53;;;;;;;6.90;2.87;;;5.50;84.60;;;;;;4925560;29;20467;-48
2022/01/20 03:29:21;;;;;;;6.87;3.10;;;5.50;84.50;;;;;;4942152;28;20470;-47
2022/01/20 03:31:47;;;;;;;8.30;2.67;;;5.50;84.50;;;;;;4942439;28;20962;-48
2022/01/20 03:34:14;;;;;;;6.37;2.70;;;5.50;84.50;;;;;;4940554;28;20480;-48
2022/01/20 03:36:41;;;;;;;9.63;3.03;;;5.50;84.60;;;;;;4943263;28;20459;-47
2022/01/20 03:39:08;;;;;;;5.60;3.20;;;5.50;84.40;;;;;;4944301;28;20838;-47
2022/01/20 03:41:34;;;;;;;9.23;3.20;;;5.40;84.40;;;;;;4944766;28;20501;-47
2022/01/20 03:44:01;;;;;;;12.40;3.50;;;5.40;84.50;;;;;;4947675;28;20494;-47
2022/01/20 03:46:28;;;;;;;11.47;3.20;;;5.40;84.40;;;;;;4943277;28;20483;-50
2022/01/20 03:49:06;;;;;;;9.10;3.57;;;5.40;84.30;;;;;;4940473;28;20459;-50
2022/01/20 03:51:33;;;;;;;9.30;3.50;;;5.40;84.10;;;;;;4942185;28;20477;-50
2022/01/20 03:54:04;;;;;;;10.40;4.07;;;5.30;84.30;;;;;;4923334;29;20945;-50
2022/01/20 03:56:32;;;;;;;13.43;3.57;;;5.30;84.10;;;;;;4946825;28;20824;-50
2022/01/20 03:58:58;;;;;;;10.80;4.33;;;5.30;84.20;;;;;;4938249;29;20843;-47
2022/01/20 04:01:25;;;;;;;6.63;3.40;;;5.30;83.90;;;;;;4925685;29;20519;-48
2022/01/20 04:03:52;;;;;;;9.53;3.77;;;5.20;83.90;;;;;;4949029;28;20564;-47
2022/01/20 04:06:19;;;;;;;11.80;4.50;;;5.20;83.60;;;;;;4947353;28;20830;-47
2022/01/20 04:08:48;;;;;;;12.83;4.43;;;5.20;83.40;;;;;;4930564;29;20455;-47
2022/01/20 04:11:16;;;;;;;12.73;4.47;;;5.20;83.10;;;;;;4929130;28;20459;-48
2022/01/20 04:13:43;;;;;;;15.70;4.90;;;5.20;83.10;;;;;;4964098;28;20467;-47
2022/01/20 04:17:02;;;;;;;11.33;5.00;;;5.10;83.30;;;;;;4932526;28;20460;-48
2022/01/20 04:19:32;;;;;;;5.70;3.43;;;5.10;83.10;;;;;;4926816;28;20485;-47
2022/01/20 04:22:00;;;;;;;13.17;4.13;;;5.10;83.10;;;;;;4947275;28;20491;-48
2022/01/20 04:24:27;;;;;;;9.50;4.03;;;5.10;83.10;;;;;;4942645;28;20502;-48
2022/01/20 04:26:54;;;;;;;9.70;3.73;;;5.10;83.00;;;;;;4927788;28;21006;-48
2022/01/20 04:29:21;;;;;;;12.10;4.30;;;5.10;83.00;;;;;;4919237;28;20545;-47
2022/01/20 04:31:50;;;;;;;10.50;3.90;;;5.10;83.00;;;;;;4946038;28;20462;-48
2022/01/20 04:34:17;;;;;;;9.10;3.47;;;5.00;82.80;;;;;;4933467;28;20542;-48
2022/01/20 04:36:46;;;;;;;14.37;4.83;;;5.00;82.90;;;;;;4945434;28;20461;-48
2022/01/20 04:39:19;;;;;;;8.60;3.63;;;5.00;83.00;;;;;;4947410;28;20863;-47
2022/01/20 04:41:47;;;;;;;9.27;4.20;;;5.00;83.00;;;;;;4950241;28;21074;-47
2022/01/20 04:44:34;;;;;;;12.17;3.30;;;4.90;83.20;;;;;;4933865;28;20447;-48
2022/01/20 04:47:17;;;;;;;17.40;3.83;;;4.90;83.30;;;;;;4941256;28;20565;-48
2022/01/20 04:58:02;;;;;;;12.80;3.57;;;4.90;83.60;;;;;;4948911;28;20458;-48
2022/01/20 05:00:29;;;;;;;16.33;4.60;;;5.00;83.60;;;;;;4946108;28;20462;-47
2022/01/20 05:02:57;;;;;;;7.20;2.90;;;4.90;83.70;;;;;;4932412;29;20958;-48
2022/01/20 05:05:30;;;;;;;7.70;2.93;;;4.90;83.80;;;;;;4943941;28;20463;-48
2022/01/20 05:07:57;;;;;;;13.40;3.00;;;4.90;84.10;;;;;;4943180;28;20460;-48
2022/01/20 05:10:24;;;;;;;8.30;2.63;;;4.90;84.40;;;;;;4920698;28;20474;-47
2022/01/20 05:15:21;;;;;;;7.43;2.83;;;4.90;84.30;;;;;;4940947;28;21016;-48
2022/01/20 05:17:49;;;;;;;6.30;2.77;;;5.00;84.30;;;;;;4941880;28;21057;-47
2022/01/20 05:20:15;;;;;;;10.23;3.10;;;5.00;84.40;;;;;;4929707;28;20459;-47
2022/01/20 05:22:47;;;;;;;8.03;3.53;;;5.00;84.20;;;;;;4942449;28;20498;-47
2022/01/20 05:25:14;;;;;;;7.63;2.97;;;5.00;84.20;;;;;;4948532;28;20462;-48
2022/01/20 05:27:41;;;;;;;7.30;2.83;;;5.00;84.00;;;;;;4944863;28;21074;-48
2022/01/20 05:30:08;;;;;;;10.00;3.17;;;5.00;84.10;;;;;;4927106;28;20454;-48
2022/01/20 05:32:35;;;;;;;11.13;2.97;;;5.00;84.60;;;;;;4933114;28;20464;-48
2022/01/20 05:35:02;;;;;;;8.37;2.30;;;5.00;85.40;;;;;;4947217;28;20454;-48
2022/01/20 05:37:29;;;;;;;4.60;2.97;;;4.90;85.80;;;;;;4943563;28;20452;-48
2022/01/20 05:39:55;;;;;;;10.80;3.53;;;4.90;86.00;;;;;;4929015;29;20454;-47
2022/01/20 05:42:22;;;;;;;10.47;3.20;;;5.00;86.20;;;;;;4930995;29;20499;-48
2022/01/20 05:44:51;;;;;;;10.00;3.03;;;5.00;86.00;;;;;;4942071;28;20532;-48
2022/01/20 05:47:28;;;;;;;8.10;3.30;;;5.00;86.20;;;;;;4947078;28;20485;-48
2022/01/20 05:49:55;;;;;;;11.30;3.00;;;5.00;86.00;;;;;;4944684;28;20998;-48
2022/01/20 05:52:22;;;;;;;8.10;2.93;;;5.00;85.90;;;;;;4924161;29;20474;-50
2022/01/20 05:54:49;;;;;;;6.53;2.80;;;5.00;85.90;;;;;;4947575;28;20886;-51
2022/01/20 05:57:16;;;;;;;12.53;2.83;;;5.00;85.40;;;;;;4926182;29;20463;-50
2022/01/20 05:59:43;;;;;;;6.70;2.70;;;5.00;85.50;;;;;;4943678;28;20462;-49
2022/01/20 06:02:27;;;;;;;4.80;2.30;;;5.00;85.60;;;;;;4928737;28;21008;-51
2022/01/20 06:04:54;;;;;;;7.83;3.27;;;5.00;85.40;;;;;;4945460;28;20455;-52
2022/01/20 06:07:21;;;;;;;7.13;3.20;;;5.00;85.10;;;;;;4940872;28;20461;-51
2022/01/20 06:09:52;;;;;;;21.57;6.03;;;5.00;85.10;;;;;;4944118;28;20459;-51
2022/01/20 06:12:19;;;;;;;9.30;4.27;;;5.00;84.90;;;;;;4928321;28;20859;-47
2022/01/20 06:14:45;;;;;;;10.10;3.70;;;4.90;85.10;;;;;;4943259;28;20463;-47
2022/01/20 06:17:12;;;;;;;6.87;2.80;;;4.90;85.40;;;;;;4942543;28;20492;-48
2022/01/20 06:19:39;;;;;;;5.00;3.00;;;4.90;85.50;;;;;;4959483;28;20470;-47
2022/01/20 06:22:09;;;;;;;10.40;2.40;;;4.90;85.80;;;;;;4944177;28;20517;-49
2022/01/20 06:24:36;;;;;;;6.40;3.13;;;4.90;85.20;;;;;;4927419;29;20474;-47
2022/01/20 06:27:04;;;;;;;12.23;2.27;;;4.80;85.60;;;;;;4939085;28;20467;-51
2022/01/20 06:29:30;;;;;;;7.43;3.03;;;4.90;85.60;;;;;;4958593;28;20466;-47
2022/01/20 06:31:57;;;;;;;6.50;2.40;;;4.90;85.40;;;;;;4943981;28;20468;-47
2022/01/20 06:34:24;;;;;;;5.77;2.03;;;4.90;85.10;;;;;;4942852;28;20462;-47
2022/01/20 06:36:50;;;;;;;5.90;2.20;;;4.80;85.20;;;;;;4943622;28;20458;-47
2022/01/20 06:39:17;;;;;;;5.70;1.83;;;4.80;85.40;;;;;;4926169;28;20455;-47
2022/01/20 06:41:47;;;;;;;4.53;2.07;;;4.80;85.60;;;;;;4942257;28;20491;-47
2022/01/20 06:44:14;;;;;;;5.40;2.00;;;4.80;85.50;;;;;;4940138;28;20881;-47
2022/01/20 06:46:42;;;;;;;10.77;3.33;;;4.80;85.80;;;;;;4944859;28;20547;-47
2022/01/20 06:49:10;;;;;;;8.43;2.10;;;4.80;85.80;;;;;;4943002;28;20463;-48
2022/01/20 06:51:37;;;;;;;9.23;2.50;;;4.80;86.00;;;;;;4926748;29;20494;-47
2022/01/20 06:54:05;;;;;;;8.53;3.20;;;4.80;86.00;;;;;;4942526;28;20458;-46
2022/01/20 06:56:31;;;;;;;8.90;2.03;;;4.80;86.10;;;;;;4946676;28;20486;-47
2022/01/20 06:59:13;;;;;;;4.83;2.20;;;4.80;86.20;;;;;;4939719;28;20566;-46
2022/01/20 07:01:41;;;;;;;10.13;2.40;;;4.80;86.30;;;;;;4933820;29;20496;-47
2022/01/20 07:04:10;;;;;;;2.97;1.83;;;4.80;86.40;;;;;;4946384;28;20946;-47
2022/01/20 07:06:37;;;;;;;10.93;2.10;;;4.80;86.10;;;;;;4943127;28;20455;-47
2022/01/20 07:09:04;;;;;;;5.23;1.70;;;4.80;86.20;;;;;;4927834;29;20462;-47
2022/01/20 07:11:31;;;;;;;4.83;2.40;;;4.90;86.20;;;;;;4932329;29;20830;-47
2022/01/20 07:13:58;;;;;;;5.87;1.83;;;4.80;86.30;;;;;;4946783;28;20463;-47
2022/01/20 07:16:25;;;;;;;3.43;1.33;;;4.80;86.40;;;;;;4945651;28;20549;-47
2022/01/20 07:18:58;;;;;;;7.20;2.40;;;4.80;86.70;;;;;;4946416;28;20474;-47
2022/01/20 07:21:25;;;;;;;4.87;1.67;;;4.80;87.10;;;;;;4921705;29;20506;-47
2022/01/20 07:23:54;;;;;;;9.50;2.57;;;4.80;86.70;;;;;;4927087;29;20503;-47
2022/01/20 07:26:21;;;;;;;3.90;1.40;;;4.80;87.10;;;;;;4947443;28;20478;-46
2022/01/20 07:28:47;;;;;;;5.37;1.90;;;4.80;87.10;;;;;;4928714;28;20460;-47
2022/01/20 07:31:20;;;;;;;6.90;1.57;;;4.80;87.10;;;;;;4942100;28;20456;-47
2022/01/20 07:33:47;;;;;;;7.30;2.43;;;4.80;87.10;;;;;;4945466;28;20463;-46
2022/01/20 07:36:14;;;;;;;7.33;1.67;;;4.80;87.00;;;;;;4936049;28;20475;-46
2022/01/20 07:38:40;;;;;;;7.40;2.03;;;4.80;86.80;;;;;;4945200;28;20455;-47
2022/01/20 07:41:07;;;;;;;7.33;3.13;;;4.90;86.40;;;;;;4926978;28;20958;-47
2022/01/20 07:43:34;;;;;;;4.20;2.37;;;4.90;86.20;;;;;;4948098;28;20999;-47
2022/01/20 07:46:01;;;;;;;8.00;1.80;;;4.90;86.10;;;;;;4949143;28;20451;-47
2022/01/20 07:48:28;;;;;;;8.00;2.27;;;4.80;85.70;;;;;;4935757;29;20462;-47
2022/01/20 07:50:55;;;;;;;7.37;2.37;;;4.80;86.00;;;;;;4929716;28;20475;-47
2022/01/20 07:53:21;;;;;;;5.50;2.00;;;4.80;86.60;;;;;;4946727;28;20475;-47
2022/01/20 07:55:49;;;;;;;3.60;1.27;;;4.80;86.40;;;;;;4944695;28;21013;-48
2022/01/20 07:58:16;;;;;;;3.77;1.57;;;4.80;86.40;;;;;;4945252;28;20887;-47
2022/01/20 08:00:47;;;;;;;2.10;1.33;;;4.80;86.70;;;;;;4946824;28;20983;-47
2022/01/20 08:03:14;;;;;;;4.00;1.57;;;4.80;87.00;;;;;;4940993;28;20495;-47
2022/01/20 08:05:41;;;;;;;2.80;1.70;;;4.80;86.70;;;;;;4935473;29;20462;-47
2022/01/20 08:08:07;;;;;;;2.40;1.60;;;4.80;87.10;;;;;;4926788;28;20479;-47
2022/01/20 08:10:35;;;;;;;3.00;1.70;;;4.80;87.40;;;;;;4942000;28;21037;-47
2022/01/20 08:13:03;;;;;;;5.20;1.57;;;4.80;88.00;;;;;;4945841;28;20502;-47
2022/01/20 08:15:30;;;;;;;4.43;2.27;;;4.90;87.80;;;;;;4947608;28;20482;-47
2022/01/20 08:18:04;;;;;;;5.73;1.93;;;4.90;87.50;;;;;;4944975;28;20473;-46
2022/01/20 08:20:31;;;;;;;6.33;1.77;;;4.90;87.00;;;;;;4946304;28;20490;-46
2022/01/20 08:22:58;;;;;;;3.10;1.60;;;5.00;87.30;;;;;;4945871;28;20529;-46
2022/01/20 08:25:26;;;;;;;7.40;1.90;;;5.00;87.20;;;;;;4940871;29;20558;-47
2022/01/20 08:27:53;;;;;;;4.70;1.57;;;5.00;87.20;;;;;;4939995;28;20447;-47
2022/01/20 08:30:22;;;;;;;4.63;1.80;;;5.00;87.00;;;;;;4946563;28;20443;-47
2022/01/20 08:32:49;;;;;;;4.13;1.20;;;5.00;87.30;;;;;;4932424;28;20472;-47
2022/01/20 08:35:18;;;;;;;5.10;1.93;;;5.00;87.30;;;;;;4932625;29;20470;-47
2022/01/20 08:37:45;;;;;;;2.93;1.73;;;5.10;86.90;;;;;;4927565;28;20508;-47
2022/01/20 08:40:18;;;;;;;2.37;1.33;;;5.10;87.00;;;;;;4943704;28;20456;-46
2022/01/20 08:42:47;;;;;;;1.50;1.23;;;5.10;87.10;;;;;;4945733;28;20490;-47
2022/01/20 08:45:16;;;;;;;3.13;1.70;;;5.10;86.80;;;;;;4945501;28;20469;-48
2022/01/20 08:47:44;;;;;;;5.83;2.53;;;5.10;86.80;;;;;;4927636;28;20455;-47
2022/01/20 08:50:11;;;;;;;4.20;1.60;;;5.20;86.70;;;;;;4944489;28;20459;-47
2022/01/20 08:52:44;;;;;;;4.07;1.97;;;5.20;86.70;;;;;;4910745;29;20986;-46
2022/01/20 08:55:10;;;;;;;4.33;1.30;;;5.20;86.30;;;;;;4929093;29;20459;-46
2022/01/20 08:57:37;;;;;;;4.10;1.83;;;5.20;86.30;;;;;;4942323;28;20467;-46
2022/01/20 09:00:05;;;;;;;2.07;1.43;;;5.10;86.70;;;;;;4942122;28;20472;-46
2022/01/20 09:02:32;;;;;;;1.77;1.47;;;5.10;86.90;;;;;;4941358;28;20506;-46
2022/01/20 09:05:00;;;;;;;2.73;1.30;;;5.10;87.00;;;;;;4946765;28;20463;-46
2022/01/20 09:07:27;;;;;;;3.13;1.73;;;5.10;87.10;;;;;;4942120;28;20884;-46
2022/01/20 09:09:55;;;;;;;3.77;1.70;;;5.10;86.90;;;;;;4941578;28;20455;-46
2022/01/20 09:17:51;;;;;;;1.70;1.60;;;5.10;85.40;;;;;;4942868;28;20454;-47
2022/01/20 09:20:19;;;;;;;4.20;1.80;;;5.10;85.70;;;;;;4910201;28;20460;-46
2022/01/20 09:22:45;;;;;;;3.83;1.60;;;5.20;86.00;;;;;;4948096;28;20486;-47
2022/01/20 09:25:12;;;;;;;5.47;2.30;;;5.30;85.30;;;;;;4944626;28;20464;-46
2022/01/20 09:27:39;;;;;;;5.83;2.67;;;5.30;84.40;;;;;;4941729;28;20474;-47
2022/01/20 09:30:08;;;;;;;3.80;2.40;;;5.30;84.40;;;;;;4922493;28;20555;-46
2022/01/20 09:32:38;;;;;;;4.43;2.43;;;5.30;84.00;;;;;;4948338;28;20480;-47
2022/01/20 09:35:06;;;;;;;2.43;1.30;;;5.40;84.00;;;;;;4941548;28;20482;-46
2022/01/20 09:37:34;;;;;;;3.80;1.93;;;5.40;82.60;;;;;;4944147;28;20462;-46
2022/01/20 09:40:01;;;;;;;3.60;2.20;;;5.40;82.00;;;;;;4945657;28;20575;-48
2022/01/20 09:42:27;;;;;;;4.93;1.97;;;5.40;81.90;;;;;;4944288;28;20501;-47
2022/01/20 09:44:54;;;;;;;6.83;2.90;;;5.30;81.90;;;;;;4942417;28;20460;-46
2022/01/20 09:47:22;;;;;;;2.73;2.03;;;5.40;81.60;;;;;;4931434;28;20447;-47
2022/01/20 09:49:49;;;;;;;4.67;2.40;;;5.50;82.10;;;;;;4946434;28;20575;-46
2022/01/20 09:52:16;;;;;;;10.07;3.83;;;5.60;81.90;;;;;;4930837;28;20653;-47
2022/01/20 09:54:43;;;;;;;6.10;2.17;;;5.70;81.90;;;;;;4925813;28;20467;-50
2022/01/20 09:57:10;;;;;;;3.00;2.00;;;5.70;80.90;;;;;;4922275;28;20654;-50
2022/01/20 09:59:37;;;;;;;6.33;3.10;;;5.80;81.60;;;;;;4943570;28;20453;-50
2022/01/20 10:02:08;;;;;;;6.10;2.80;;;6.00;80.30;;;;;;4925342;28;20862;-50
2022/01/20 10:04:35;;;;;;;4.67;2.37;;;6.10;79.10;;;;;;4925005;28;20486;-50
2022/01/20 10:07:09;;;;;;;6.87;2.63;;;6.20;78.40;;;;;;4946442;28;20464;-50
2022/01/20 10:09:39;;;;;;;4.27;1.80;;;6.40;77.90;;;;;;4914651;28;21253;-50
2022/01/20 10:12:08;;;;;;;8.07;2.03;;;6.60;77.70;;;;;;4944209;28;20471;-50
2022/01/20 10:14:47;;;;;;;3.07;1.57;;;6.80;74.20;;;;;;4944738;28;20558;-50
2022/01/20 10:17:23;;;;;;;7.00;2.27;;;6.90;74.90;;;;;;4940820;28;20871;-49
2022/01/20 10:19:56;;;;;;;5.97;2.47;;;7.00;74.20;;;;;;4944603;28;20558;-50
2022/01/20 10:22:25;;;;;;;4.77;1.97;;;7.00;72.60;;;;;;4927494;29;21051;-49
2022/01/20 10:25:02;;;;;;;6.70;2.40;;;7.00;72.90;;;;;;4946152;28;20467;-49
2022/01/20 10:27:34;;;;;;;4.33;2.23;;;7.00;71.90;;;;;;4940072;28;20495;-50
2022/01/20 10:30:09;;;;;;;13.57;3.57;;;6.90;72.60;;;;;;4947556;28;20950;-50
2022/01/20 10:32:41;;;;;;;2.63;2.00;;;6.90;71.40;;;;;;4923618;28;20483;-51
2022/01/20 10:35:08;;;;;;;7.73;2.17;;;6.90;71.70;;;;;;4939758;28;20474;-50
2022/01/20 10:37:35;;;;;;;6.37;3.00;;;6.90;72.20;;;;;;4944256;28;20455;-50
2022/01/20 10:40:04;;;;;;;7.87;2.10;;;6.90;71.40;;;;;;4927274;29;20545;-50
2022/01/20 10:42:43;;;;;;;6.67;2.47;;;6.90;71.40;;;;;;4928024;28;20840;-50
2022/01/20 10:45:30;;;;;;;9.87;2.20;;;6.90;71.80;;;;;;4931016;29;21261;-49
2022/01/20 10:47:59;;;;;;;7.30;2.63;;;6.90;71.80;;;;;;4942492;28;20463;-49
2022/01/20 10:50:32;;;;;;;8.63;2.37;;;6.80;71.50;;;;;;4945280;28;20457;-49
2022/01/20 10:52:59;;;;;;;9.93;2.07;;;6.80;72.00;;;;;;4911435;29;20475;-50
2022/01/20 10:55:33;;;;;;;5.73;2.07;;;6.80;73.10;;;;;;4944750;28;20463;-49
2022/01/20 10:58:12;;;;;;;4.07;2.40;;;6.80;72.40;;;;;;4934182;28;20473;-50
2022/01/20 11:00:47;;;;;;;9.17;2.20;;;6.70;71.70;;;;;;4922992;29;20482;-49
2022/01/20 11:03:15;;;;;;;9.57;2.20;;;6.60;72.60;;;;;;4920595;28;20533;-50
2022/01/20 11:05:50;;;;;;;5.47;2.37;;;6.60;71.00;;;;;;4941820;28;20475;-50
2022/01/20 11:08:17;;;;;;;5.70;2.00;;;6.40;72.30;;;;;;4946005;28;20896;-50
2022/01/20 11:10:45;;;;;;;5.50;2.17;;;6.40;72.10;;;;;;4943260;28;20670;-49
2022/01/20 11:13:15;;;;;;;2.73;2.17;;;6.30;73.10;;;;;;4927653;29;20463;-50
2022/01/20 11:15:43;;;;;;;6.37;2.80;;;6.20;74.40;;;;;;4946696;28;20589;-50
2022/01/20 11:18:11;;;;;;;3.67;2.77;;;6.10;74.90;;;;;;4927347;29;21122;-49
2022/01/20 11:20:43;;;;;;;3.30;2.40;;;6.00;75.70;;;;;;4926420;28;20952;-49
2022/01/20 11:23:11;;;;;;;5.13;3.00;;;6.00;76.30;;;;;;4943906;28;20510;-49
2022/01/20 11:25:41;;;;;;;5.20;2.90;;;6.00;75.70;;;;;;4945713;28;20455;-50
2022/01/20 11:28:12;;;;;;;3.63;2.17;;;5.90;76.30;;;;;;4922572;29;20819;-50
2022/01/20 11:30:52;;;;;;;7.50;2.27;;;5.90;74.60;;;;;;4943976;28;20481;-50
2022/01/20 11:33:20;;;;;;;2.70;2.10;;;5.90;73.60;;;;;;4939071;28;20466;-50
2022/01/20 11:35:56;;;;;;;3.47;2.20;;;5.90;73.90;;;;;;4939567;28;20861;-49
2022/01/20 11:38:37;;;;;;;9.60;2.40;;;5.90;74.10;;;;;;4910862;29;20466;-49
2022/01/20 11:41:04;;;;;;;4.40;2.50;;;5.80;73.20;;;;;;4930464;28;20471;-50
2022/01/20 11:43:36;;;;;;;4.33;2.10;;;5.80;74.20;;;;;;4943079;28;20479;-50
2022/01/20 11:46:24;;;;;;;5.63;2.40;;;5.90;73.30;;;;;;4924064;28;20577;-50
2022/01/20 11:48:57;;;;;;;5.00;2.47;;;5.90;73.60;;;;;;4948758;28;20460;-50
2022/01/20 11:51:48;;;;;;;4.27;3.00;;;5.80;74.10;;;;;;4960754;28;20530;-49
2022/01/20 11:54:40;;;;;;;7.13;2.47;;;5.80;74.80;;;;;;4945962;28;20475;-49
2022/01/20 11:57:12;;;;;;;5.77;2.33;;;5.70;74.40;;;;;;4945210;29;20459;-49
2022/01/20 11:59:50;;;;;;;7.73;3.90;;;5.70;75.10;;;;;;4930822;28;20534;-49
2022/01/20 12:02:38;;;;;;;7.57;2.07;;;5.70;76.10;;;;;;4928522;29;20464;-49
2022/01/20 12:05:27;;;;;;;3.87;2.90;;;5.80;75.90;;;;;;4941910;28;20462;-49
2022/01/20 12:08:17;;;;;;;6.13;2.63;;;5.80;76.00;;;;;;4946261;28;20517;-49
2022/01/20 12:10:58;;;;;;;9.17;2.60;;;5.80;75.20;;;;;;4950869;28;20494;-48
2022/01/20 12:13:25;;;;;;;8.20;2.33;;;5.80;75.60;;;;;;4950473;28;20462;-49
2022/01/20 12:15:56;;;;;;;6.10;2.47;;;5.80;75.60;;;;;;4945487;28;20474;-50
2022/01/20 12:18:23;;;;;;;3.10;2.43;;;5.80;75.10;;;;;;4950641;28;20497;-49
2022/01/20 12:20:51;;;;;;;5.23;2.67;;;5.90;75.90;;;;;;4948794;28;20479;-49
2022/01/20 12:23:19;;;;;;;5.73;2.83;;;5.90;75.20;;;;;;4937826;29;20598;-49
2022/01/20 12:25:47;;;;;;;12.43;2.90;;;5.90;75.20;;;;;;4951414;28;20655;-49
2022/01/20 12:28:16;;;;;;;3.83;3.13;;;5.90;74.80;;;;;;4946790;28;20474;-50
2022/01/20 12:30:49;;;;;;;7.53;2.37;;;5.90;74.50;;;;;;4942816;28;20818;-50
2022/01/20 12:33:21;;;;;;;4.90;2.13;;;5.90;74.30;;;;;;4946268;28;20467;-50
2022/01/20 12:35:51;;;;;;;4.13;2.47;;;5.90;74.20;;;;;;4942539;28;20456;-50
2022/01/20 12:38:26;;;;;;;4.27;2.60;;;5.90;74.10;;;;;;4942122;28;20463;-50
2022/01/20 12:41:17;;;;;;;4.60;2.33;;;5.80;73.90;;;;;;4946592;28;20875;-50
2022/01/20 12:43:48;;;;;;;3.73;2.43;;;5.80;75.00;;;;;;4947459;28;20745;-51
2022/01/20 12:46:21;;;;;;;3.30;2.13;;;5.80;74.30;;;;;;4949076;28;20463;-51
2022/01/20 12:49:05;;;;;;;5.60;2.70;;;5.70;74.70;;;;;;4920671;28;20530;-50
2022/01/20 12:51:50;;;;;;;3.17;1.80;;;5.70;75.70;;;;;;4944357;28;20936;-50
2022/01/20 12:54:27;;;;;;;1.57;1.10;;;5.60;75.20;;;;;;4933138;28;20494;-50
2022/01/20 12:56:59;;;;;;;2.70;0.67;;;5.50;76.30;;;;;;4940634;28;20590;-50
2022/01/20 12:59:31;;;;;;;2.67;0.83;;;5.40;74.90;;;;;;4946062;28;20492;-49
2022/01/20 13:02:27;;;;;;;4.40;1.40;;;5.10;76.00;;;;;;4930842;29;20487;-50
2022/01/20 13:05:04;;;;;;;2.00;1.20;;;4.90;77.70;;;;;;4944857;28;20885;-50
2022/01/20 13:07:34;;;;;;;7.00;0.90;;;4.70;78.00;;;;;;4947336;28;20455;-50
2022/01/20 13:10:31;;;;;;;1.03;0.87;;;4.50;78.20;;;;;;4932914;29;20452;-49
2022/01/20 13:13:00;;;;;;;1.93;1.00;;;4.40;76.30;;;;;;4929767;28;20991;-49
2022/01/20 13:15:32;;;;;;;1.63;1.00;;;4.30;77.00;;;;;;4929955;28;20498;-50
2022/01/20 13:18:06;;;;;;;7.50;1.43;;;4.30;77.20;;;;;;4942771;28;20479;-49
2022/01/20 13:20:40;;;;;;;2.20;0.83;;;4.20;77.50;;;;;;4929481;29;20470;-49
2022/01/20 13:25:49;;;;;;;5.67;2.17;;;4.20;79.60;;;;;;4933349;29;20466;-47
2022/01/20 13:28:17;;;;;;;4.90;1.43;;;4.40;80.10;;;;;;4944016;28;20975;-46
2022/01/20 13:30:50;;;;;;;1.80;1.27;;;4.50;80.20;;;;;;4942331;28;20451;-46
2022/01/20 13:33:27;;;;;;;3.53;1.10;;;4.60;80.40;;;;;;4925828;29;20499;-45
2022/01/20 13:36:01;;;;;;;3.33;1.93;;;4.70;79.60;;;;;;4943476;28;20829;-46
2022/01/20 13:38:38;;;;;;;2.57;1.43;;;4.70;80.20;;;;;;4946381;28;20565;-46
2022/01/20 13:41:10;;;;;;;4.40;2.03;;;4.80;80.70;;;;;;4934859;28;20463;-49
2022/01/20 13:46:38;;;;;;;3.17;2.13;;;4.90;79.50;;;;;;4955898;28;20458;-49
2022/01/20 13:49:26;;;;;;;4.13;2.23;;;4.90;79.00;;;;;;4956165;28;20443;-49
2022/01/20 13:52:03;;;;;;;3.00;1.73;;;5.00;78.20;;;;;;4950057;28;20447;-49
2022/01/20 13:54:39;;;;;;;2.50;1.37;;;5.00;78.10;;;;;;4953041;28;20477;-50
2022/01/20 13:57:39;;;;;;;1.70;1.43;;;5.00;76.90;;;;;;4928057;28;20447;-49
2022/01/20 14:00:10;;;;;;;6.80;2.10;;;5.00;75.90;;;;;;4953901;28;20494;-50
2022/01/20 14:02:36;;;;;;;5.77;2.50;;;5.00;75.40;;;;;;4939600;29;20458;-49
2022/01/20 14:05:04;;;;;;;2.60;2.13;;;5.00;75.10;;;;;;4939444;28;20467;-48
2022/01/20 14:07:31;;;;;;;3.73;1.80;;;4.90;76.50;;;;;;4939056;28;20471;-49
2022/01/20 14:09:57;;;;;;;5.00;1.97;;;4.90;76.30;;;;;;4954741;28;20456;-48
2022/01/20 14:12:24;;;;;;;7.07;2.20;;;4.80;76.70;;;;;;4955972;28;20586;-48
2022/01/20 14:14:51;;;;;;;4.73;1.70;;;4.80;77.10;;;;;;4940636;29;20455;-49
2022/01/20 14:17:20;;;;;;;3.80;2.30;;;4.80;77.10;;;;;;4953715;28;20501;-49
2022/01/20 14:19:54;;;;;;;8.37;1.80;;;4.90;77.10;;;;;;4939977;28;20490;-50